Time;durP1;ratioP1;P1;durP2;ratioP2;P2;SDS_P1;SDS_P2;PMS_P1;PMS_P2;Temp;Humidity;BMP_temperature;BMP_pressure;BME280_temperature;BME280_humidity;BME280_pressure;Samples;Min_cycle;Max_cycle;Signal;HPM_P1;HPM_P2
2022/07/12 00:01:31;;;;;;;;;;;;;;;18.39;48.57;101925.66;5038924;28;20351;-60
2022/07/12 00:03:56;;;;;;;;;;;;;;;18.38;48.55;101917.75;5036798;28;19987;-57
2022/07/12 00:06:21;;;;;;;;;;;;;;;18.36;48.91;101920.53;5047605;28;19990;-58
2022/07/12 00:08:47;;;;;;;;;;;;;;;18.33;48.66;101923.41;5044752;28;19924;-58
2022/07/12 00:11:12;;;;;;;;;;;;;;;18.31;48.81;101924.50;5041342;28;19921;-58
2022/07/12 00:13:37;;;;;;;;;;;;;;;18.25;49.05;101923.97;5040386;28;20383;-57
2022/07/12 00:16:03;;;;;;;;;;;;;;;18.18;48.88;101922.72;5041736;28;19927;-59
2022/07/12 00:18:28;;;;;;;;;;;;;;;18.11;48.85;101921.44;5041684;28;19935;-62
2022/07/12 00:20:54;;;;;;;;;;;;;;;18.08;48.84;101916.31;5042937;28;19933;-58
2022/07/12 00:23:19;;;;;;;;;;;;;;;18.06;48.89;101918.28;5039786;28;19924;-56
2022/07/12 00:25:44;;;;;;;;;;;;;;;18.06;48.73;101921.78;5041788;28;19925;-56
2022/07/12 00:28:10;;;;;;;;;;;;;;;18.04;48.68;101915.69;5043513;28;19928;-61
2022/07/12 00:30:35;;;;;;;;;;;;;;;18.04;48.93;101925.50;5044188;28;20376;-57
2022/07/12 00:33:00;;;;;;;;;;;;;;;18.02;48.88;101928.25;5041661;28;19928;-58
2022/07/12 00:35:26;;;;;;;;;;;;;;;18.00;48.71;101934.66;5034827;28;19956;-61
2022/07/12 00:37:51;;;;;;;;;;;;;;;17.97;48.83;101925.06;5051224;28;19921;-60
2022/07/12 00:40:17;;;;;;;;;;;;;;;17.93;48.93;101924.41;5035218;28;20340;-59
2022/07/12 00:42:42;;;;;;;;;;;;;;;17.90;48.93;101929.97;5041886;28;19927;-60
2022/07/12 00:45:08;;;;;;;;;;;;;;;17.89;49.05;101922.94;5042185;28;19923;-59
2022/07/12 00:47:37;;;;;;;;;;;;;;;17.89;48.79;101933.59;5038693;28;19936;-59
2022/07/12 00:50:03;;;;;;;;;;;;;;;17.89;49.11;101930.94;5050066;28;19928;-60
2022/07/12 00:52:29;;;;;;;;;;;;;;;17.84;48.93;101935.72;5038677;28;20347;-58
2022/07/12 00:54:54;;;;;;;;;;;;;;;17.79;49.09;101933.38;5039134;28;19968;-61
2022/07/12 00:57:19;;;;;;;;;;;;;;;17.76;49.07;101932.75;5041582;28;20453;-58
2022/07/12 00:59:45;;;;;;;;;;;;;;;17.73;49.05;101936.44;5038341;28;20383;-58
2022/07/12 01:02:10;;;;;;;;;;;;;;;17.73;49.12;101935.63;5043253;28;19929;-59
2022/07/12 01:04:35;;;;;;;;;;;;;;;17.72;48.88;101939.22;5037099;28;19920;-58
2022/07/12 01:07:01;;;;;;;;;;;;;;;17.71;49.16;101942.84;5049514;28;19984;-57
2022/07/12 01:09:26;;;;;;;;;;;;;;;17.67;49.03;101935.06;5035411;28;19920;-60
2022/07/12 01:11:52;;;;;;;;;;;;;;;17.65;49.21;101942.31;5042706;28;19921;-58
2022/07/12 01:14:17;;;;;;;;;;;;;;;17.64;49.23;101935.28;5043181;28;20003;-59
2022/07/12 01:16:43;;;;;;;;;;;;;;;17.63;49.14;101938.06;5047136;28;19927;-59
2022/07/12 01:19:15;;;;;;;;;;;;;;;17.60;49.16;101941.78;5033049;28;19917;-57
2022/07/12 01:21:40;;;;;;;;;;;;;;;17.58;49.07;101935.72;5037939;28;19929;-60
2022/07/12 01:24:07;;;;;;;;;;;;;;;17.57;49.15;101944.66;5041896;28;19924;-58
2022/07/12 01:26:32;;;;;;;;;;;;;;;17.57;49.13;101944.66;5040715;28;19925;-57
2022/07/12 01:28:58;;;;;;;;;;;;;;;17.56;49.18;101942.09;5043625;28;20288;-58
2022/07/12 01:31:23;;;;;;;;;;;;;;;17.55;49.13;101943.91;5031673;28;19924;-61
2022/07/12 01:33:50;;;;;;;;;;;;;;;17.55;49.36;101938.59;5042926;28;19943;-60
2022/07/12 01:36:16;;;;;;;;;;;;;;;17.55;49.73;101945.69;5044233;28;20003;-59
2022/07/12 01:38:41;;;;;;;;;;;;;;;17.54;49.70;101950.19;5041555;28;20067;-60
2022/07/12 01:41:06;;;;;;;;;;;;;;;17.54;49.95;101944.03;5038248;28;19933;-60
2022/07/12 01:43:32;;;;;;;;;;;;;;;17.52;50.01;101936.13;5037723;28;19920;-62
2022/07/12 01:45:57;;;;;;;;;;;;;;;17.49;50.11;101937.19;5043969;28;19920;-64
2022/07/12 01:48:22;;;;;;;;;;;;;;;17.47;50.04;101941.75;5039054;28;19924;-62
2022/07/12 01:50:48;;;;;;;;;;;;;;;17.43;50.21;101934.94;5037516;28;19921;-61
2022/07/12 01:53:14;;;;;;;;;;;;;;;17.41;50.35;101938.66;5037555;28;19921;-59
2022/07/12 01:55:39;;;;;;;;;;;;;;;17.36;50.64;101937.16;5031396;28;19921;-62
2022/07/12 01:58:05;;;;;;;;;;;;;;;17.33;50.58;101932.06;5040791;28;19932;-62
2022/07/12 02:00:31;;;;;;;;;;;;;;;17.33;50.51;101932.06;5035206;28;20418;-59
2022/07/12 02:02:56;;;;;;;;;;;;;;;17.34;50.30;101933.75;5039830;28;19921;-58
2022/07/12 02:05:22;;;;;;;;;;;;;;;17.35;50.20;101935.47;5040950;28;20343;-60
2022/07/12 02:07:48;;;;;;;;;;;;;;;17.32;50.10;101930.34;5049385;28;19928;-61
2022/07/12 02:10:13;;;;;;;;;;;;;;;17.30;50.22;101937.59;5040408;28;19931;-62
2022/07/12 02:12:38;;;;;;;;;;;;;;;17.31;49.89;101944.63;5038305;28;20283;-60
2022/07/12 02:15:07;;;;;;;;;;;;;;;17.30;49.92;101937.59;5040183;28;20375;-61
2022/07/12 02:17:33;;;;;;;;;;;;;;;17.29;49.92;101935.91;5047851;28;19921;-61
2022/07/12 02:19:58;;;;;;;;;;;;;;;17.27;49.77;101943.13;5035458;28;19929;-63
2022/07/12 02:22:23;;;;;;;;;;;;;;;17.24;49.95;101935.34;5034604;28;20468;-62
2022/07/12 02:24:49;;;;;;;;;;;;;;;17.22;50.08;101931.94;5036142;28;19921;-59
2022/07/12 02:27:15;;;;;;;;;;;;;;;17.19;50.02;101929.47;5037688;28;19928;-61
2022/07/12 02:29:42;;;;;;;;;;;;;;;17.17;50.22;101928.72;5046197;28;20287;-60
2022/07/12 02:32:07;;;;;;;;;;;;;;;17.13;50.30;101925.41;5044831;28;20028;-58
2022/07/12 02:34:32;;;;;;;;;;;;;;;17.11;50.39;101923.81;5037282;28;20019;-58
2022/07/12 02:36:57;;;;;;;;;;;;;;;17.08;50.46;101926.69;5047332;28;19934;-59
2022/07/12 02:39:23;;;;;;;;;;;;;;;17.03;50.51;101927.00;5038772;28;20315;-60
2022/07/12 02:41:48;;;;;;;;;;;;;;;16.99;50.54;101938.78;5037679;28;20450;-58
2022/07/12 02:44:13;;;;;;;;;;;;;;;16.95;50.62;101934.59;5041860;28;19920;-62
2022/07/12 02:46:39;;;;;;;;;;;;;;;16.91;50.66;101939.25;5046893;28;19952;-60
2022/07/12 02:49:04;;;;;;;;;;;;;;;16.89;50.78;101943.81;5036659;28;20701;-59
2022/07/12 02:51:30;;;;;;;;;;;;;;;16.89;50.71;101949.13;5035280;28;19936;-59
2022/07/12 02:53:55;;;;;;;;;;;;;;;16.88;50.73;101942.09;5031697;28;20446;-61
2022/07/12 02:56:20;;;;;;;;;;;;;;;16.88;50.62;101944.75;5042361;28;19984;-59
2022/07/12 02:58:45;;;;;;;;;;;;;;;16.86;50.58;101936.06;5038961;28;19925;-62
2022/07/12 03:01:11;;;;;;;;;;;;;;;16.86;50.47;101933.41;5040247;28;19932;-62
2022/07/12 03:03:36;;;;;;;;;;;;;;;16.84;50.36;101936.16;5040724;28;19924;-63
2022/07/12 03:06:02;;;;;;;;;;;;;;;16.81;50.17;101936.34;5042196;28;19929;-62
2022/07/12 03:08:27;;;;;;;;;;;;;;;16.77;50.30;101941.00;5050311;28;19916;-59
2022/07/12 03:10:53;;;;;;;;;;;;;;;16.74;50.25;101943.88;5040472;28;20724;-58
2022/07/12 03:13:18;;;;;;;;;;;;;;;16.74;50.03;101940.38;5038561;28;19955;-59
2022/07/12 03:15:45;;;;;;;;;;;;;;;16.74;50.02;101954.50;5033319;28;19921;-62
2022/07/12 03:18:11;;;;;;;;;;;;;;;16.73;50.01;101958.09;5044160;28;19951;-59
2022/07/12 03:20:36;;;;;;;;;;;;;;;16.72;49.85;101958.22;5041803;28;20295;-61
2022/07/12 03:23:01;;;;;;;;;;;;;;;16.70;49.86;101955.66;5044373;28;19929;-63
2022/07/12 03:25:27;;;;;;;;;;;;;;;16.72;49.88;101958.22;5038232;28;20004;-62
2022/07/12 03:27:52;;;;;;;;;;;;;;;16.73;49.80;101958.09;5036614;28;19916;-58
2022/07/12 03:30:18;;;;;;;;;;;;;;;16.74;49.85;101957.16;5045056;28;19921;-62
2022/07/12 03:32:43;;;;;;;;;;;;;;;16.73;49.78;101958.09;5038387;28;20002;-58
2022/07/12 03:35:09;;;;;;;;;;;;;;;16.73;49.59;101965.22;5020841;28;19936;-61
2022/07/12 03:37:49;;;;;;;;;;;;;;;16.73;49.69;101963.41;5028158;28;19924;-61
2022/07/12 03:40:15;;;;;;;;;;;;;;;16.73;49.61;101967.91;5032559;28;19928;-61
2022/07/12 03:42:41;;;;;;;;;;;;;;;16.74;49.65;101972.25;5039671;28;19956;-59
2022/07/12 03:45:06;;;;;;;;;;;;;;;16.73;49.62;101981.19;5039421;28;19921;-58
2022/07/12 03:47:32;;;;;;;;;;;;;;;16.70;49.78;101979.59;5045291;28;19947;-61
2022/07/12 03:49:57;;;;;;;;;;;;;;;16.71;49.83;101985.75;5043274;28;19929;-59
2022/07/12 03:52:23;;;;;;;;;;;;;;;16.66;49.84;101980.72;5049949;28;19912;-62
2022/07/12 03:54:48;;;;;;;;;;;;;;;16.63;50.02;101991.53;5040589;28;19962;-58
2022/07/12 03:57:13;;;;;;;;;;;;;;;16.59;50.02;101987.38;5041016;28;19928;-60
2022/07/12 03:59:39;;;;;;;;;;;;;;;16.58;50.11;101983.88;5040821;28;19923;-58
2022/07/12 04:02:05;;;;;;;;;;;;;;;16.57;49.97;101984.81;5050239;28;19920;-60
2022/07/12 04:04:30;;;;;;;;;;;;;;;16.58;50.22;101983.88;5043670;28;20035;-60
2022/07/12 04:06:55;;;;;;;;;;;;;;;16.62;50.14;101992.50;5034693;28;19921;-60
2022/07/12 04:09:20;;;;;;;;;;;;;;;16.63;50.09;101990.69;5045573;28;20256;-58
2022/07/12 04:11:46;;;;;;;;;;;;;;;16.66;50.32;101990.47;5041405;28;19929;-58
2022/07/12 04:14:11;;;;;;;;;;;;;;;16.69;50.36;101998.25;5041440;28;19912;-57
2022/07/12 04:16:37;;;;;;;;;;;;;;;16.70;50.50;101995.53;5033896;28;20012;-61
2022/07/12 04:19:02;;;;;;;;;;;;;;;16.71;50.50;101999.88;5019417;28;19948;-61
2022/07/12 04:21:27;;;;;;;;;;;;;;;16.72;50.56;101998.91;5045824;28;20396;-61
2022/07/12 04:23:53;;;;;;;;;;;;;;;16.75;50.50;101996.06;5046038;28;20012;-60
2022/07/12 04:26:18;;;;;;;;;;;;;;;16.78;50.49;101997.69;5048823;28;19921;-60
2022/07/12 04:28:43;;;;;;;;;;;;;;;16.81;50.50;102004.59;5029960;28;19920;-57
2022/07/12 04:31:09;;;;;;;;;;;;;;;16.81;50.66;102004.59;5037734;28;19925;-64
2022/07/12 04:33:35;;;;;;;;;;;;;;;16.82;50.75;102001.00;5038564;28;19925;-59
2022/07/12 04:36:00;;;;;;;;;;;;;;;16.81;50.93;102005.44;5042728;28;19925;-58
2022/07/12 04:38:25;;;;;;;;;;;;;;;16.82;51.01;102007.16;5046653;28;19928;-60
2022/07/12 04:40:50;;;;;;;;;;;;;;;16.82;51.04;102001.00;5044526;28;19928;-64
2022/07/12 04:43:16;;;;;;;;;;;;;;;16.83;51.13;102002.72;5033751;28;19940;-58
2022/07/12 04:45:44;;;;;;;;;;;;;;;16.85;51.02;101993.69;5038959;28;19928;-58
2022/07/12 04:48:12;;;;;;;;;;;;;;;16.89;51.01;102002.28;5035861;28;19932;-62
2022/07/12 04:50:38;;;;;;;;;;;;;;;16.93;50.69;101987.88;5037200;28;19932;-63
2022/07/12 04:53:03;;;;;;;;;;;;;;;16.96;50.68;101994.81;5036533;28;19916;-59
2022/07/12 04:55:28;;;;;;;;;;;;;;;16.96;50.77;101998.34;5012044;28;20007;-58
2022/07/12 04:57:54;;;;;;;;;;;;;;;16.98;50.72;101985.78;5028884;28;20467;-61
2022/07/12 05:00:19;;;;;;;;;;;;;;;17.01;50.67;101990.91;5032067;28;19933;-62
2022/07/12 05:02:45;;;;;;;;;;;;;;;17.04;50.59;101988.03;5035951;28;19929;-59
2022/07/12 05:05:10;;;;;;;;;;;;;;;17.10;50.74;101993.91;5025593;28;19932;-60
2022/07/12 05:07:35;;;;;;;;;;;;;;;17.15;50.67;101990.00;5040548;28;20164;-57
2022/07/12 05:10:00;;;;;;;;;;;;;;;17.18;50.59;101991.59;5037560;28;20353;-59
2022/07/12 05:12:26;;;;;;;;;;;;;;;17.18;50.65;101995.13;5024682;28;19921;-62
2022/07/12 05:14:51;;;;;;;;;;;;;;;17.24;50.62;101996.53;5040727;28;19948;-62
2022/07/12 05:17:16;;;;;;;;;;;;;;;17.29;50.52;101994.41;5036701;28;19920;-62
2022/07/12 05:19:42;;;;;;;;;;;;;;;17.34;50.43;101997.59;5040199;28;20265;-58
2022/07/12 05:22:07;;;;;;;;;;;;;;;17.41;50.31;102002.53;5035394;28;20065;-59
2022/07/12 05:24:32;;;;;;;;;;;;;;;17.43;50.31;102000.63;5032716;28;19935;-61
2022/07/12 05:26:57;;;;;;;;;;;;;;;17.46;50.05;101998.59;5047400;28;19920;-61
2022/07/12 05:29:23;;;;;;;;;;;;;;;17.48;50.09;102009.13;5041330;28;19935;-60
2022/07/12 05:31:48;;;;;;;;;;;;;;;17.50;50.18;102002.75;5048439;28;20016;-61
2022/07/12 05:34:13;;;;;;;;;;;;;;;17.54;50.07;102003.41;5047292;28;20328;-61
2022/07/12 05:36:39;;;;;;;;;;;;;;;17.54;50.26;102000.75;5050040;28;20334;-62
2022/07/12 05:39:04;;;;;;;;;;;;;;;17.56;50.34;102004.16;5040154;28;19917;-61
2022/07/12 05:41:30;;;;;;;;;;;;;;;17.61;50.18;102014.47;5039134;28;19932;-61
2022/07/12 05:43:55;;;;;;;;;;;;;;;17.66;50.48;102012.38;5050105;28;19925;-60
2022/07/12 05:46:20;;;;;;;;;;;;;;;17.72;50.32;102005.78;5038067;28;19927;-59
2022/07/12 05:48:46;;;;;;;;;;;;;;;17.79;50.14;102007.03;5047906;28;19921;-58
2022/07/12 05:53:55;;;;;;;;;;;;;;;17.91;49.98;101998.25;5039757;28;19975;-59
2022/07/12 05:56:20;;;;;;;;;;;;;;;17.94;50.14;102011.31;5043933;28;19929;-59
2022/07/12 05:58:46;;;;;;;;;;;;;;;17.98;50.00;102015.50;5050456;28;19921;-59
2022/07/12 06:01:11;;;;;;;;;;;;;;;18.03;50.12;102025.00;5043975;28;19921;-58
2022/07/12 06:03:37;;;;;;;;;;;;;;;18.08;50.02;102017.53;5043955;28;19940;-58
2022/07/12 06:06:02;;;;;;;;;;;;;;;18.12;50.25;102008.38;5040125;28;19921;-60
2022/07/12 06:08:28;;;;;;;;;;;;;;;18.18;49.96;102004.44;5043308;28;19917;-61
2022/07/12 06:10:53;;;;;;;;;;;;;;;18.23;49.96;102010.28;5047532;28;19921;-60
2022/07/12 06:13:18;;;;;;;;;;;;;;;18.27;50.24;102007.28;5046282;28;19921;-60
2022/07/12 06:15:44;;;;;;;;;;;;;;;18.33;50.18;102002.50;5047698;28;20011;-62
2022/07/12 06:18:09;;;;;;;;;;;;;;;18.37;50.13;101999.50;5046285;28;19921;-60
2022/07/12 06:20:35;;;;;;;;;;;;;;;18.43;49.99;102000.88;5044728;28;19924;-61
2022/07/12 06:23:00;;;;;;;;;;;;;;;18.46;50.16;101995.34;5046131;28;19921;-61
2022/07/12 06:25:25;;;;;;;;;;;;;;;18.54;50.20;102006.28;5047560;28;20411;-61
2022/07/12 06:27:51;;;;;;;;;;;;;;;18.62;50.15;102005.75;5049901;28;19959;-59
2022/07/12 06:30:17;;;;;;;;;;;;;;;18.70;49.79;102007.84;5047156;28;19959;-62
2022/07/12 06:32:43;;;;;;;;;;;;;;;18.78;49.96;102009.97;5050803;28;19924;-60
2022/07/12 06:35:09;;;;;;;;;;;;;;;18.86;49.47;102010.28;5054615;28;20380;-61
2022/07/12 06:37:34;;;;;;;;;;;;;;;18.93;49.52;102005.34;5046967;28;19971;-59
2022/07/12 06:39:59;;;;;;;;;;;;;;;18.98;48.95;102016.56;5041649;28;19920;-62
2022/07/12 06:42:25;;;;;;;;;;;;;;;19.03;48.89;102003.72;5051505;28;20228;-58
2022/07/12 06:44:50;;;;;;;;;;;;;;;19.11;48.96;102019.16;5049693;28;19974;-62
2022/07/12 06:47:15;;;;;;;;;;;;;;;19.17;48.60;102000.88;5053970;28;20015;-61
2022/07/12 06:49:40;;;;;;;;;;;;;;;19.25;48.51;102010.13;5051178;28;19917;-64
2022/07/12 06:52:06;;;;;;;;;;;;;;;19.32;48.47;101998.03;5048803;28;19916;-60
2022/07/12 06:54:31;;;;;;;;;;;;;;;19.36;48.13;102004.84;5047761;28;19920;-63
2022/07/12 06:56:57;;;;;;;;;;;;;;;19.41;47.99;102002.69;5050518;28;20371;-59
2022/07/12 06:59:22;;;;;;;;;;;;;;;19.48;48.09;102001.25;5040703;28;22003;-60
2022/07/12 07:01:47;;;;;;;;;;;;;;;19.54;48.05;101996.41;5039619;28;20368;-60
2022/07/12 07:04:12;;;;;;;;;;;;;;;19.59;47.85;101997.75;5049776;28;20027;-59
2022/07/12 07:06:38;;;;;;;;;;;;;;;19.64;47.68;101995.59;5044186;28;20291;-59
2022/07/12 07:09:07;;;;;;;;;;;;;;;19.68;47.50;101993.53;5058577;28;20019;-59
2022/07/12 07:11:32;;;;;;;;;;;;;;;19.71;47.26;101995.97;5049144;28;19932;-58
2022/07/12 07:13:58;;;;;;;;;;;;;;;19.72;47.49;102000.34;5049622;28;19916;-61
2022/07/12 07:16:24;;;;;;;;;;;;;;;19.76;47.38;102004.47;5046737;28;19921;-62
2022/07/12 07:18:49;;;;;;;;;;;;;;;19.84;47.15;102003.03;5053702;28;19979;-63
2022/07/12 07:21:15;;;;;;;;;;;;;;;19.89;47.05;101992.88;5044806;28;20387;-61
2022/07/12 07:23:40;;;;;;;;;;;;;;;19.95;46.93;102005.75;5045140;28;19921;-62
2022/07/12 07:26:06;;;;;;;;;;;;;;;20.00;46.71;102002.72;5044642;28;19936;-59
2022/07/12 07:28:31;;;;;;;;;;;;;;;20.04;46.90;101994.31;5048382;28;19917;-59
2022/07/12 07:30:58;;;;;;;;;;;;;;;20.14;46.41;101993.63;5052946;28;21120;-62
2022/07/12 07:33:24;;;;;;;;;;;;;;;20.21;46.15;102011.72;5046566;28;19978;-61
2022/07/12 07:35:49;;;;;;;;;;;;;;;20.26;46.12;101992.66;5048935;28;19916;-62
2022/07/12 07:38:15;;;;;;;;;;;;;;;20.30;46.00;101987.91;5048662;28;20012;-60
2022/07/12 07:40:41;;;;;;;;;;;;;;;20.36;45.71;101998.94;5044554;28;20260;-62
2022/07/12 07:43:06;;;;;;;;;;;;;;;20.41;45.35;101986.06;5048018;28;19921;-61
2022/07/12 07:45:31;;;;;;;;;;;;;;;20.47;45.36;101987.41;5026144;28;19927;-58
2022/07/12 07:47:57;;;;;;;;;;;;;;;20.53;44.72;101983.38;5042352;28;20062;-62
2022/07/12 07:50:22;;;;;;;;;;;;;;;20.58;44.70;101981.19;5046716;28;20307;-61
2022/07/12 07:52:49;;;;;;;;;;;;;;;20.61;44.58;102002.34;5045565;28;19927;-60
2022/07/12 07:55:15;;;;;;;;;;;;;;;20.67;44.41;101991.13;5039412;28;19983;-59
2022/07/12 07:57:41;;;;;;;;;;;;;;;20.74;44.03;101991.47;5044559;28;19921;-61
2022/07/12 08:00:06;;;;;;;;;;;;;;;20.82;44.27;101993.56;5046650;28;19934;-64
2022/07/12 08:02:32;;;;;;;;;;;;;;;20.86;43.67;101987.00;5049522;28;19913;-58
2022/07/12 08:04:57;;;;;;;;;;;;;;;20.91;43.55;101994.63;5050261;28;19925;-59
2022/07/12 08:07:22;;;;;;;;;;;;;;;20.97;43.39;101984.28;5053058;28;19921;-58
2022/07/12 08:09:47;;;;;;;;;;;;;;;21.02;42.51;101984.75;5050629;28;19947;-60
2022/07/12 08:12:13;;;;;;;;;;;;;;;21.07;42.50;101994.22;5050597;28;19916;-59
2022/07/12 08:14:39;;;;;;;;;;;;;;;21.10;42.59;101984.13;5057578;28;19921;-59
2022/07/12 08:17:04;;;;;;;;;;;;;;;21.14;42.51;101982.91;5049297;28;20006;-60
2022/07/12 08:19:29;;;;;;;;;;;;;;;21.20;42.29;101986.88;5047462;28;19975;-59
2022/07/12 08:21:55;;;;;;;;;;;;;;;21.24;41.91;101976.75;5042991;28;19975;-61
2022/07/12 08:24:20;;;;;;;;;;;;;;;21.27;42.02;101988.03;5049493;28;19929;-60
2022/07/12 08:26:45;;;;;;;;;;;;;;;21.30;42.08;101984.28;5048534;28;19967;-57
2022/07/12 08:29:10;;;;;;;;;;;;;;;21.34;42.12;101988.38;5051065;28;19928;-59
2022/07/12 08:31:36;;;;;;;;;;;;;;;21.41;42.03;101986.03;5049413;28;19928;-58
2022/07/12 08:34:01;;;;;;;;;;;;;;;21.45;41.50;102008.91;5032319;28;19982;-61
2022/07/12 08:36:27;;;;;;;;;;;;;;;21.49;41.28;101988.94;5046023;28;19927;-58
2022/07/12 08:38:52;;;;;;;;;;;;;;;21.53;41.62;101981.47;5049333;28;19929;-59
2022/07/12 08:41:17;;;;;;;;;;;;;;;21.59;41.62;101986.31;5046474;28;19971;-57
2022/07/12 08:43:43;;;;;;;;;;;;;;;21.66;41.05;101981.31;5048819;28;19928;-61
2022/07/12 08:46:12;;;;;;;;;;;;;;;21.68;40.97;101990.06;5049724;28;20281;-61
2022/07/12 08:48:39;;;;;;;;;;;;;;;21.71;41.15;101979.06;5047076;28;19971;-60
2022/07/12 08:51:06;;;;;;;;;;;;;;;21.75;40.96;102004.63;5048580;28;20363;-61
2022/07/12 08:53:31;;;;;;;;;;;;;;;21.78;40.94;101983.78;5047340;28;19974;-62
2022/07/12 08:55:57;;;;;;;;;;;;;;;21.82;40.85;101992.41;5048155;28;19921;-60
2022/07/12 08:58:22;;;;;;;;;;;;;;;21.87;40.87;101978.63;5045253;28;19964;-59
2022/07/12 09:00:48;;;;;;;;;;;;;;;21.91;40.72;101983.56;5042684;28;19925;-60
2022/07/12 09:03:14;;;;;;;;;;;;;;;21.94;40.56;101985.13;5043686;28;19956;-59
2022/07/12 09:05:46;;;;;;;;;;;;;;;21.97;40.32;101978.66;5030517;28;20303;-58
2022/07/12 09:08:11;;;;;;;;;;;;;;;22.01;40.34;101982.75;5039850;28;19931;-62
2022/07/12 09:10:49;;;;;;;;;;;;;;;22.05;40.18;101985.06;5044117;28;19921;-62
2022/07/12 09:13:14;;;;;;;;;;;;;;;22.05;40.35;101974.34;5040614;28;20485;-58
2022/07/12 09:15:39;;;;;;;;;;;;;;;22.10;40.00;101986.47;5048568;28;20003;-59
2022/07/12 09:18:12;;;;;;;;;;;;;;;22.14;40.27;101985.22;5047588;28;19921;-59
2022/07/12 09:20:38;;;;;;;;;;;;;;;22.18;40.23;101976.78;5043297;28;25026;-61
2022/07/12 09:23:04;;;;;;;;;;;;;;;22.20;39.92;101984.69;5042756;28;19923;-64
2022/07/12 09:25:31;;;;;;;;;;;;;;;22.29;39.84;101988.41;5041822;28;20370;-58
2022/07/12 09:27:57;;;;;;;;;;;;;;;22.38;39.81;101984.88;5050771;28;19920;-61
2022/07/12 09:30:23;;;;;;;;;;;;;;;22.45;38.96;101999.50;5045475;28;19927;-61
2022/07/12 09:38:20;;;;;;;;;;;;;;;22.58;38.67;101963.53;5074384;28;19927;-59
2022/07/12 09:40:47;;;;;;;;;;;;;;;22.63;38.49;101972.84;5079269;28;19932;-59
2022/07/12 09:43:13;;;;;;;;;;;;;;;22.68;38.14;101973.28;5077101;28;19920;-59
2022/07/12 09:45:39;;;;;;;;;;;;;;;22.76;37.46;101975.28;5081485;28;19959;-58
2022/07/12 09:48:05;;;;;;;;;;;;;;;22.80;37.19;101971.31;5075510;28;19995;-58
2022/07/12 09:50:32;;;;;;;;;;;;;;;22.82;37.23;101974.72;5082906;28;19920;-52
2022/07/12 09:52:58;;;;;;;;;;;;;;;22.86;37.53;101975.28;5077591;28;19924;-55
2022/07/12 09:55:25;;;;;;;;;;;;;;;22.94;36.93;101971.88;5091887;28;19916;-52
2022/07/12 09:57:55;;;;;;;;;;;;;;;22.98;36.57;101981.34;5077180;28;20410;-52
2022/07/12 10:00:21;;;;;;;;;;;;;;;23.02;36.14;101973.88;5076121;28;19926;-52
2022/07/12 10:02:48;;;;;;;;;;;;;;;23.04;36.41;101972.75;5075527;28;19924;-52
2022/07/12 10:05:13;;;;;;;;;;;;;;;23.09;36.11;101970.47;5079224;28;19998;-54
2022/07/12 10:07:39;;;;;;;;;;;;;;;23.13;36.30;101968.38;5076125;28;20015;-52
2022/07/12 10:10:05;;;;;;;;;;;;;;;23.21;35.50;101987.31;5084760;28;19913;-52
2022/07/12 10:12:30;;;;;;;;;;;;;;;23.23;35.34;101984.50;5078855;28;20402;-52
2022/07/12 10:15:08;;;;;;;;;;;;;;;23.25;35.49;101977.16;5081977;28;19920;-53
2022/07/12 10:17:34;;;;;;;;;;;;;;;23.25;35.80;101974.47;5084369;28;19912;-55
2022/07/12 10:20:19;;;;;;;;;;;;;;;23.29;35.36;101967.81;5083278;28;20023;-52
2022/07/12 10:22:44;;;;;;;;;;;;;;;23.35;35.56;101972.63;5077988;28;19926;-56
2022/07/12 10:25:28;;;;;;;;;;;;;;;23.42;35.12;101980.97;5081207;28;19924;-52
2022/07/12 10:27:53;;;;;;;;;;;;;;;23.49;34.54;101974.00;5080226;28;19939;-53
2022/07/12 10:30:20;;;;;;;;;;;;;;;23.56;34.30;101977.81;5076296;28;20366;-54
2022/07/12 10:32:46;;;;;;;;;;;;;;;23.62;34.81;101971.03;5074533;28;19920;-54
2022/07/12 10:35:12;;;;;;;;;;;;;;;23.69;34.89;101977.50;5081069;28;19924;-52
2022/07/12 10:37:38;;;;;;;;;;;;;;;23.77;34.37;101978.63;5081635;28;19921;-52
2022/07/12 10:40:19;;;;;;;;;;;;;;;23.81;34.45;101977.34;5077450;28;20019;-52
2022/07/12 10:43:00;;;;;;;;;;;;;;;23.84;34.08;101979.72;5076230;28;20589;-55
2022/07/12 10:45:29;;;;;;;;;;;;;;;23.84;33.86;101968.97;5081626;28;19999;-53
2022/07/12 10:47:54;;;;;;;;;;;;;;;23.83;34.26;101973.50;5074918;28;19916;-52
2022/07/12 10:50:20;;;;;;;;;;;;;;;23.86;34.20;101977.72;5076934;28;19916;-52
2022/07/12 10:52:45;;;;;;;;;;;;;;;23.89;33.95;101983.69;5079610;28;19929;-55
2022/07/12 10:55:13;;;;;;;;;;;;;;;23.93;34.00;101978.84;5080449;28;19935;-52
2022/07/12 10:57:43;;;;;;;;;;;;;;;24.00;33.71;101973.78;5073424;28;19923;-52
2022/07/12 11:00:09;;;;;;;;;;;;;;;24.05;33.50;101991.16;5074887;28;19924;-51
2022/07/12 11:02:35;;;;;;;;;;;;;;;24.12;33.54;101979.81;5080528;28;19927;-51
2022/07/12 11:05:00;;;;;;;;;;;;;;;24.19;33.57;101972.84;5046775;28;20303;-52
2022/07/12 11:07:27;;;;;;;;;;;;;;;24.26;32.94;101976.63;5077651;28;19923;-57
2022/07/12 11:09:53;;;;;;;;;;;;;;;24.32;33.34;101999.38;5068533;28;19923;-53
2022/07/12 11:12:18;;;;;;;;;;;;;;;24.33;33.01;101990.31;5071768;28;19917;-51
2022/07/12 11:14:45;;;;;;;;;;;;;;;24.31;33.26;101976.19;5074177;28;19924;-52
2022/07/12 11:17:10;;;;;;;;;;;;;;;24.33;33.33;101984.94;5078923;28;19921;-53
2022/07/12 11:19:35;;;;;;;;;;;;;;;24.37;33.43;101974.72;5077912;28;19928;-55
2022/07/12 11:22:01;;;;;;;;;;;;;;;24.42;33.49;101980.50;5086910;28;19968;-52
2022/07/12 11:24:30;;;;;;;;;;;;;;;24.42;33.49;101978.66;5075850;28;19963;-52
2022/07/12 11:26:56;;;;;;;;;;;;;;;24.40;32.92;101972.56;5079246;28;20405;-55
2022/07/12 11:29:21;;;;;;;;;;;;;;;24.41;33.34;101995.78;5074888;28;19925;-55
2022/07/12 11:31:47;;;;;;;;;;;;;;;24.44;33.10;101976.66;5075002;28;19920;-53
2022/07/12 11:34:38;;;;;;;;;;;;;;;24.45;33.32;101966.75;5079166;28;20393;-53
2022/07/12 11:37:04;;;;;;;;;;;;;;;24.47;33.37;101988.97;5084619;28;20011;-52
2022/07/12 11:39:33;;;;;;;;;;;;;;;24.47;32.92;101970.13;5077481;28;20003;-54
2022/07/12 11:41:58;;;;;;;;;;;;;;;24.47;32.63;101971.00;5078444;28;20012;-52
2022/07/12 11:44:43;;;;;;;;;;;;;;;24.53;32.83;101960.59;5080210;28;20378;-52
2022/07/12 11:47:08;;;;;;;;;;;;;;;24.63;32.89;101973.00;5080269;28;20400;-51
2022/07/12 11:49:34;;;;;;;;;;;;;;;24.68;32.73;101966.31;5082161;28;20011;-53
2022/07/12 11:51:59;;;;;;;;;;;;;;;24.69;32.82;101971.53;5082227;28;20077;-53
2022/07/12 11:54:25;;;;;;;;;;;;;;;24.71;32.49;101977.66;5084477;28;19920;-52
2022/07/12 11:57:03;;;;;;;;;;;;;;;24.70;32.49;101958.97;5081189;28;19959;-59
2022/07/12 11:59:29;;;;;;;;;;;;;;;24.69;32.70;101959.94;5073342;28;19920;-53
2022/07/12 12:02:08;;;;;;;;;;;;;;;24.72;32.70;101965.91;5074799;28;19929;-52
2022/07/12 12:04:52;;;;;;;;;;;;;;;24.80;32.40;101959.75;5086101;28;20785;-52
2022/07/12 12:07:18;;;;;;;;;;;;;;;24.88;32.39;101962.50;5082367;28;20766;-55
2022/07/12 12:10:02;;;;;;;;;;;;;;;24.93;32.47;101970.16;5068551;28;19932;-55
2022/07/12 12:12:37;;;;;;;;;;;;;;;24.96;32.46;101970.69;5073970;28;19995;-55
2022/07/12 12:15:06;;;;;;;;;;;;;;;24.98;32.15;101956.22;5072601;28;19930;-54
2022/07/12 12:17:33;;;;;;;;;;;;;;;25.00;32.41;101943.44;5069172;28;19928;-57
2022/07/12 12:20:07;;;;;;;;;;;;;;;25.08;32.61;101956.97;5065912;28;19925;-57
2022/07/12 12:22:33;;;;;;;;;;;;;;;25.21;32.36;101957.41;5081954;28;19924;-53
2022/07/12 12:25:03;;;;;;;;;;;;;;;25.26;32.41;101968.56;5079042;28;19919;-52
2022/07/12 12:27:28;;;;;;;;;;;;;;;25.22;32.45;101956.41;5079196;28;19917;-52
2022/07/12 12:29:57;;;;;;;;;;;;;;;25.13;32.81;101951.97;5077193;28;19938;-52
2022/07/12 12:32:23;;;;;;;;;;;;;;;25.07;33.00;101966.03;5081015;28;19945;-52
2022/07/12 12:35:04;;;;;;;;;;;;;;;24.99;33.05;101949.84;5079775;28;19916;-51
2022/07/12 12:37:30;;;;;;;;;;;;;;;24.99;33.18;101947.97;5076933;28;20454;-54
2022/07/12 12:39:56;;;;;;;;;;;;;;;25.04;33.22;101956.44;5073305;28;20003;-53